sensor_id;sensor_type;location;lat;lon;timestamp;P1;durP1;ratioP1;P2;durP2;ratioP2
2710;SDS011;20721;47.402;8.550;2023-06-04T00:00:21;9.79;;;9.79;;
2710;SDS011;20721;47.402;8.550;2023-06-04T00:01:27;9.69;;;9.69;;
2710;SDS011;20721;47.402;8.550;2023-06-04T00:02:21;10.25;;;10.25;;
2710;SDS011;20721;47.402;8.550;2023-06-04T00:03:21;9.96;;;9.96;;
2710;SDS011;20721;47.402;8.550;2023-06-04T00:04:21;9.75;;;9.75;;
2710;SDS011;20721;47.402;8.550;2023-06-04T00:05:21;9.30;;;9.30;;
2710;SDS011;20721;47.402;8.550;2023-06-04T00:09:21;9.86;;;9.86;;
2710;SDS011;20721;47.402;8.550;2023-06-04T00:11:21;9.66;;;9.66;;
2710;SDS011;20721;47.402;8.550;2023-06-04T00:12:21;9.76;;;9.76;;
2710;SDS011;20721;47.402;8.550;2023-06-04T00:13:21;9.48;;;9.48;;
2710;SDS011;20721;47.402;8.550;2023-06-04T00:15:22;9.58;;;9.58;;
2710;SDS011;20721;47.402;8.550;2023-06-04T00:16:21;10.00;;;10.00;;
2710;SDS011;20721;47.402;8.550;2023-06-04T00:17:21;9.37;;;9.37;;
2710;SDS011;20721;47.402;8.550;2023-06-04T00:18:23;9.01;;;9.01;;
2710;SDS011;20721;47.402;8.550;2023-06-04T00:19:21;8.75;;;8.75;;
2710;SDS011;20721;47.402;8.550;2023-06-04T00:20:21;9.79;;;9.79;;
2710;SDS011;20721;47.402;8.550;2023-06-04T00:21:21;9.36;;;9.36;;
2710;SDS011;20721;47.402;8.550;2023-06-04T00:22:21;8.90;;;8.90;;
2710;SDS011;20721;47.402;8.550;2023-06-04T00:23:21;10.02;;;10.02;;
2710;SDS011;20721;47.402;8.550;2023-06-04T00:24:24;9.71;;;9.71;;
2710;SDS011;20721;47.402;8.550;2023-06-04T00:25:21;9.50;;;9.50;;
2710;SDS011;20721;47.402;8.550;2023-06-04T00:26:21;9.47;;;9.47;;
2710;SDS011;20721;47.402;8.550;2023-06-04T00:27:21;9.72;;;9.72;;
2710;SDS011;20721;47.402;8.550;2023-06-04T00:28:21;9.07;;;9.07;;
2710;SDS011;20721;47.402;8.550;2023-06-04T00:29:21;11.19;;;11.19;;
2710;SDS011;20721;47.402;8.550;2023-06-04T00:32:21;9.84;;;9.84;;
2710;SDS011;20721;47.402;8.550;2023-06-04T00:33:21;10.40;;;10.40;;
2710;SDS011;20721;47.402;8.550;2023-06-04T00:34:21;10.25;;;10.25;;
2710;SDS011;20721;47.402;8.550;2023-06-04T00:35:21;9.66;;;9.66;;
2710;SDS011;20721;47.402;8.550;2023-06-04T00:36:21;8.84;;;8.84;;
2710;SDS011;20721;47.402;8.550;2023-06-04T00:37:22;9.13;;;9.13;;
2710;SDS011;20721;47.402;8.550;2023-06-04T00:38:21;9.06;;;9.06;;
2710;SDS011;20721;47.402;8.550;2023-06-04T00:39:21;10.24;;;10.24;;
2710;SDS011;20721;47.402;8.550;2023-06-04T00:40:21;9.63;;;9.63;;
2710;SDS011;20721;47.402;8.550;2023-06-04T00:42:21;8.68;;;8.68;;
2710;SDS011;20721;47.402;8.550;2023-06-04T00:43:23;9.21;;;9.21;;
2710;SDS011;20721;47.402;8.550;2023-06-04T00:44:21;9.79;;;9.79;;
2710;SDS011;20721;47.402;8.550;2023-06-04T00:45:23;9.53;;;9.53;;
2710;SDS011;20721;47.402;8.550;2023-06-04T00:46:28;10.09;;;10.09;;
2710;SDS011;20721;47.402;8.550;2023-06-04T00:47:23;10.22;;;10.22;;
2710;SDS011;20721;47.402;8.550;2023-06-04T00:48:21;10.14;;;10.14;;
2710;SDS011;20721;47.402;8.550;2023-06-04T00:49:22;9.61;;;9.61;;
2710;SDS011;20721;47.402;8.550;2023-06-04T00:50:21;10.51;;;10.51;;
2710;SDS011;20721;47.402;8.550;2023-06-04T00:51:22;9.92;;;9.92;;
2710;SDS011;20721;47.402;8.550;2023-06-04T00:52:23;9.14;;;9.14;;
2710;SDS011;20721;47.402;8.550;2023-06-04T00:53:22;10.22;;;10.22;;
2710;SDS011;20721;47.402;8.550;2023-06-04T00:54:22;9.79;;;9.79;;
2710;SDS011;20721;47.402;8.550;2023-06-04T00:55:22;10.01;;;10.01;;
2710;SDS011;20721;47.402;8.550;2023-06-04T00:56:22;9.74;;;9.74;;
2710;SDS011;20721;47.402;8.550;2023-06-04T00:57:22;9.94;;;9.94;;
2710;SDS011;20721;47.402;8.550;2023-06-04T00:58:23;9.13;;;9.13;;
2710;SDS011;20721;47.402;8.550;2023-06-04T00:59:22;9.80;;;9.80;;
2710;SDS011;20721;47.402;8.550;2023-06-04T01:00:22;9.86;;;9.86;;
2710;SDS011;20721;47.402;8.550;2023-06-04T01:02:24;9.08;;;9.08;;
2710;SDS011;20721;47.402;8.550;2023-06-04T01:03:24;10.87;;;10.87;;
2710;SDS011;20721;47.402;8.550;2023-06-04T01:04:27;10.56;;;10.56;;
2710;SDS011;20721;47.402;8.550;2023-06-04T01:07:24;10.88;;;10.88;;
2710;SDS011;20721;47.402;8.550;2023-06-04T01:08:23;10.60;;;10.60;;
2710;SDS011;20721;47.402;8.550;2023-06-04T01:09:24;10.89;;;10.89;;
2710;SDS011;20721;47.402;8.550;2023-06-04T01:10:23;10.60;;;10.60;;
2710;SDS011;20721;47.402;8.550;2023-06-04T01:11:37;9.81;;;9.81;;
2710;SDS011;20721;47.402;8.550;2023-06-04T01:12:22;10.16;;;10.16;;
2710;SDS011;20721;47.402;8.550;2023-06-04T01:13:22;10.80;;;10.80;;
2710;SDS011;20721;47.402;8.550;2023-06-04T01:15:22;10.62;;;10.62;;
2710;SDS011;20721;47.402;8.550;2023-06-04T01:16:24;9.97;;;9.97;;
2710;SDS011;20721;47.402;8.550;2023-06-04T01:17:29;10.03;;;10.03;;
2710;SDS011;20721;47.402;8.550;2023-06-04T01:20:46;9.87;;;9.87;;
2710;SDS011;20721;47.402;8.550;2023-06-04T01:22:40;10.35;;;10.35;;
2710;SDS011;20721;47.402;8.550;2023-06-04T01:23:33;10.41;;;10.41;;
2710;SDS011;20721;47.402;8.550;2023-06-04T01:26:22;9.27;;;9.27;;
2710;SDS011;20721;47.402;8.550;2023-06-04T01:27:22;9.64;;;9.64;;
2710;SDS011;20721;47.402;8.550;2023-06-04T01:28:22;9.81;;;9.81;;
2710;SDS011;20721;47.402;8.550;2023-06-04T01:29:22;10.66;;;10.66;;
2710;SDS011;20721;47.402;8.550;2023-06-04T01:30:23;10.79;;;10.79;;
2710;SDS011;20721;47.402;8.550;2023-06-04T01:32:22;10.62;;;10.62;;
2710;SDS011;20721;47.402;8.550;2023-06-04T01:33:23;9.16;;;9.16;;
2710;SDS011;20721;47.402;8.550;2023-06-04T01:35:22;10.21;;;10.21;;
2710;SDS011;20721;47.402;8.550;2023-06-04T01:36:22;10.01;;;10.01;;
2710;SDS011;20721;47.402;8.550;2023-06-04T01:39:21;10.00;;;10.00;;
2710;SDS011;20721;47.402;8.550;2023-06-04T01:40:22;10.54;;;10.54;;
2710;SDS011;20721;47.402;8.550;2023-06-04T01:41:22;9.58;;;9.58;;
2710;SDS011;20721;47.402;8.550;2023-06-04T01:42:22;10.03;;;10.03;;
2710;SDS011;20721;47.402;8.550;2023-06-04T01:43:22;10.90;;;10.90;;
2710;SDS011;20721;47.402;8.550;2023-06-04T01:44:22;10.24;;;10.24;;
2710;SDS011;20721;47.402;8.550;2023-06-04T01:45:22;9.67;;;9.67;;
2710;SDS011;20721;47.402;8.550;2023-06-04T01:46:22;10.68;;;10.68;;
2710;SDS011;20721;47.402;8.550;2023-06-04T01:47:22;10.08;;;10.08;;
2710;SDS011;20721;47.402;8.550;2023-06-04T01:48:22;9.75;;;9.75;;
2710;SDS011;20721;47.402;8.550;2023-06-04T01:49:22;10.27;;;10.27;;
2710;SDS011;20721;47.402;8.550;2023-06-04T01:50:22;9.91;;;9.91;;
2710;SDS011;20721;47.402;8.550;2023-06-04T01:51:21;9.05;;;9.05;;
2710;SDS011;20721;47.402;8.550;2023-06-04T01:52:22;10.51;;;10.49;;
2710;SDS011;20721;47.402;8.550;2023-06-04T01:53:22;10.14;;;10.14;;
2710;SDS011;20721;47.402;8.550;2023-06-04T01:54:22;9.77;;;9.77;;
2710;SDS011;20721;47.402;8.550;2023-06-04T01:55:23;10.77;;;10.77;;
2710;SDS011;20721;47.402;8.550;2023-06-04T01:56:23;10.26;;;10.26;;
2710;SDS011;20721;47.402;8.550;2023-06-04T01:57:22;10.23;;;10.23;;
2710;SDS011;20721;47.402;8.550;2023-06-04T01:58:21;9.77;;;9.77;;
2710;SDS011;20721;47.402;8.550;2023-06-04T01:59:22;9.64;;;9.64;;
2710;SDS011;20721;47.402;8.550;2023-06-04T02:00:22;10.15;;;10.15;;
2710;SDS011;20721;47.402;8.550;2023-06-04T02:02:22;9.96;;;9.96;;
2710;SDS011;20721;47.402;8.550;2023-06-04T02:03:22;10.68;;;10.68;;
2710;SDS011;20721;47.402;8.550;2023-06-04T02:04:21;9.03;;;9.03;;
2710;SDS011;20721;47.402;8.550;2023-06-04T02:05:22;9.42;;;9.42;;
2710;SDS011;20721;47.402;8.550;2023-06-04T02:06:22;9.43;;;9.43;;
2710;SDS011;20721;47.402;8.550;2023-06-04T02:07:24;10.35;;;10.35;;
2710;SDS011;20721;47.402;8.550;2023-06-04T02:09:22;10.50;;;10.50;;
2710;SDS011;20721;47.402;8.550;2023-06-04T02:10:22;10.03;;;10.03;;
2710;SDS011;20721;47.402;8.550;2023-06-04T02:11:22;9.60;;;9.60;;
2710;SDS011;20721;47.402;8.550;2023-06-04T02:12:22;9.84;;;9.84;;
2710;SDS011;20721;47.402;8.550;2023-06-04T02:13:22;9.34;;;9.34;;
2710;SDS011;20721;47.402;8.550;2023-06-04T02:14:22;10.47;;;10.47;;
2710;SDS011;20721;47.402;8.550;2023-06-04T02:15:22;10.02;;;10.02;;
2710;SDS011;20721;47.402;8.550;2023-06-04T02:16:22;10.08;;;10.08;;
2710;SDS011;20721;47.402;8.550;2023-06-04T02:18:29;9.58;;;9.58;;
2710;SDS011;20721;47.402;8.550;2023-06-04T02:19:23;9.13;;;9.13;;
2710;SDS011;20721;47.402;8.550;2023-06-04T02:20:22;9.65;;;9.65;;
2710;SDS011;20721;47.402;8.550;2023-06-04T02:21:22;9.34;;;9.34;;
2710;SDS011;20721;47.402;8.550;2023-06-04T02:22:22;9.67;;;9.67;;
2710;SDS011;20721;47.402;8.550;2023-06-04T02:23:22;9.64;;;9.64;;
2710;SDS011;20721;47.402;8.550;2023-06-04T02:24:22;10.00;;;10.00;;
2710;SDS011;20721;47.402;8.550;2023-06-04T02:25:22;10.67;;;10.67;;
2710;SDS011;20721;47.402;8.550;2023-06-04T02:26:22;10.61;;;10.61;;
2710;SDS011;20721;47.402;8.550;2023-06-04T02:27:22;10.05;;;10.05;;
2710;SDS011;20721;47.402;8.550;2023-06-04T02:28:22;9.39;;;9.39;;
2710;SDS011;20721;47.402;8.550;2023-06-04T02:29:22;10.14;;;10.14;;
2710;SDS011;20721;47.402;8.550;2023-06-04T02:30:22;10.16;;;10.16;;
2710;SDS011;20721;47.402;8.550;2023-06-04T02:31:22;9.77;;;9.77;;
2710;SDS011;20721;47.402;8.550;2023-06-04T02:33:22;10.23;;;10.23;;
2710;SDS011;20721;47.402;8.550;2023-06-04T02:34:22;10.48;;;10.48;;
2710;SDS011;20721;47.402;8.550;2023-06-04T02:35:22;10.67;;;10.67;;
2710;SDS011;20721;47.402;8.550;2023-06-04T02:36:22;10.69;;;10.69;;
2710;SDS011;20721;47.402;8.550;2023-06-04T02:37:22;10.08;;;10.08;;
2710;SDS011;20721;47.402;8.550;2023-06-04T02:38:22;10.07;;;10.07;;
2710;SDS011;20721;47.402;8.550;2023-06-04T02:39:22;10.46;;;10.46;;
2710;SDS011;20721;47.402;8.550;2023-06-04T02:40:22;10.57;;;10.57;;
2710;SDS011;20721;47.402;8.550;2023-06-04T02:41:22;9.76;;;9.76;;
2710;SDS011;20721;47.402;8.550;2023-06-04T02:43:22;10.38;;;10.32;;
2710;SDS011;20721;47.402;8.550;2023-06-04T02:44:22;9.57;;;9.57;;
2710;SDS011;20721;47.402;8.550;2023-06-04T02:45:22;10.28;;;10.25;;
2710;SDS011;20721;47.402;8.550;2023-06-04T02:46:22;10.89;;;10.89;;
2710;SDS011;20721;47.402;8.550;2023-06-04T02:47:22;9.20;;;9.20;;
2710;SDS011;20721;47.402;8.550;2023-06-04T02:48:22;10.58;;;10.58;;
2710;SDS011;20721;47.402;8.550;2023-06-04T02:49:23;10.38;;;10.38;;
2710;SDS011;20721;47.402;8.550;2023-06-04T02:50:23;9.79;;;9.79;;
2710;SDS011;20721;47.402;8.550;2023-06-04T02:51:22;10.94;;;10.94;;
2710;SDS011;20721;47.402;8.550;2023-06-04T02:52:22;10.52;;;10.52;;
2710;SDS011;20721;47.402;8.550;2023-06-04T02:53:22;9.81;;;9.81;;
2710;SDS011;20721;47.402;8.550;2023-06-04T02:54:22;10.38;;;10.38;;
2710;SDS011;20721;47.402;8.550;2023-06-04T02:55:22;11.22;;;11.22;;
2710;SDS011;20721;47.402;8.550;2023-06-04T02:56:22;10.47;;;10.47;;
2710;SDS011;20721;47.402;8.550;2023-06-04T02:57:22;9.95;;;9.95;;
2710;SDS011;20721;47.402;8.550;2023-06-04T03:00:23;10.14;;;10.14;;
2710;SDS011;20721;47.402;8.550;2023-06-04T03:01:27;10.09;;;10.09;;
2710;SDS011;20721;47.402;8.550;2023-06-04T03:02:22;10.75;;;10.75;;
2710;SDS011;20721;47.402;8.550;2023-06-04T03:03:22;9.79;;;9.79;;
2710;SDS011;20721;47.402;8.550;2023-06-04T03:04:25;9.75;;;9.75;;
2710;SDS011;20721;47.402;8.550;2023-06-04T03:05:23;11.00;;;11.00;;
2710;SDS011;20721;47.402;8.550;2023-06-04T03:07:22;9.81;;;9.81;;
2710;SDS011;20721;47.402;8.550;2023-06-04T03:08:22;11.34;;;11.34;;
2710;SDS011;20721;47.402;8.550;2023-06-04T03:11:22;11.12;;;11.12;;
2710;SDS011;20721;47.402;8.550;2023-06-04T03:12:22;10.77;;;10.77;;
2710;SDS011;20721;47.402;8.550;2023-06-04T03:13:22;10.18;;;10.18;;
2710;SDS011;20721;47.402;8.550;2023-06-04T03:14:22;11.10;;;11.10;;
2710;SDS011;20721;47.402;8.550;2023-06-04T03:15:22;9.96;;;9.96;;
2710;SDS011;20721;47.402;8.550;2023-06-04T03:16:22;10.97;;;10.97;;
2710;SDS011;20721;47.402;8.550;2023-06-04T03:17:22;10.69;;;10.69;;
2710;SDS011;20721;47.402;8.550;2023-06-04T03:18:22;10.77;;;10.77;;
2710;SDS011;20721;47.402;8.550;2023-06-04T03:19:22;10.23;;;10.23;;
2710;SDS011;20721;47.402;8.550;2023-06-04T03:21:22;10.45;;;10.45;;
2710;SDS011;20721;47.402;8.550;2023-06-04T03:22:22;10.53;;;10.53;;
2710;SDS011;20721;47.402;8.550;2023-06-04T03:23:23;10.68;;;10.68;;
2710;SDS011;20721;47.402;8.550;2023-06-04T03:24:22;11.20;;;11.20;;
2710;SDS011;20721;47.402;8.550;2023-06-04T03:25:22;10.76;;;10.76;;
2710;SDS011;20721;47.402;8.550;2023-06-04T03:27:22;11.20;;;11.20;;
2710;SDS011;20721;47.402;8.550;2023-06-04T03:28:22;10.19;;;10.19;;
2710;SDS011;20721;47.402;8.550;2023-06-04T03:30:22;10.03;;;10.03;;
2710;SDS011;20721;47.402;8.550;2023-06-04T03:31:22;11.84;;;11.84;;
2710;SDS011;20721;47.402;8.550;2023-06-04T03:32:22;11.21;;;11.21;;
2710;SDS011;20721;47.402;8.550;2023-06-04T03:33:22;10.20;;;10.20;;
2710;SDS011;20721;47.402;8.550;2023-06-04T03:34:22;10.55;;;10.55;;
2710;SDS011;20721;47.402;8.550;2023-06-04T03:35:22;9.61;;;9.61;;
2710;SDS011;20721;47.402;8.550;2023-06-04T03:36:22;10.38;;;10.38;;
2710;SDS011;20721;47.402;8.550;2023-06-04T03:37:22;11.90;;;11.90;;
2710;SDS011;20721;47.402;8.550;2023-06-04T03:38:22;10.31;;;10.31;;
2710;SDS011;20721;47.402;8.550;2023-06-04T03:39:22;10.04;;;10.03;;
2710;SDS011;20721;47.402;8.550;2023-06-04T03:40:22;10.75;;;10.75;;
2710;SDS011;20721;47.402;8.550;2023-06-04T03:41:22;10.70;;;10.70;;
2710;SDS011;20721;47.402;8.550;2023-06-04T03:42:22;9.53;;;9.53;;
2710;SDS011;20721;47.402;8.550;2023-06-04T03:43:22;10.32;;;10.32;;
2710;SDS011;20721;47.402;8.550;2023-06-04T03:44:22;10.05;;;10.05;;
2710;SDS011;20721;47.402;8.550;2023-06-04T03:45:22;11.17;;;11.17;;
2710;SDS011;20721;47.402;8.550;2023-06-04T03:46:22;10.76;;;10.76;;
2710;SDS011;20721;47.402;8.550;2023-06-04T03:47:22;10.88;;;10.88;;
2710;SDS011;20721;47.402;8.550;2023-06-04T03:48:22;11.44;;;11.44;;
2710;SDS011;20721;47.402;8.550;2023-06-04T03:49:22;10.45;;;10.45;;
2710;SDS011;20721;47.402;8.550;2023-06-04T03:51:22;10.68;;;10.68;;
2710;SDS011;20721;47.402;8.550;2023-06-04T03:52:22;10.16;;;10.16;;
2710;SDS011;20721;47.402;8.550;2023-06-04T03:53:22;10.13;;;10.13;;
2710;SDS011;20721;47.402;8.550;2023-06-04T03:54:22;9.69;;;9.69;;
2710;SDS011;20721;47.402;8.550;2023-06-04T03:55:22;10.19;;;10.19;;
2710;SDS011;20721;47.402;8.550;2023-06-04T03:56:23;10.88;;;10.88;;
2710;SDS011;20721;47.402;8.550;2023-06-04T03:57:22;10.63;;;10.63;;
2710;SDS011;20721;47.402;8.550;2023-06-04T03:58:22;10.43;;;10.43;;
2710;SDS011;20721;47.402;8.550;2023-06-04T03:59:22;10.05;;;10.05;;
2710;SDS011;20721;47.402;8.550;2023-06-04T04:00:23;10.64;;;10.64;;
2710;SDS011;20721;47.402;8.550;2023-06-04T04:01:22;10.54;;;10.54;;
2710;SDS011;20721;47.402;8.550;2023-06-04T04:02:22;9.99;;;9.99;;
2710;SDS011;20721;47.402;8.550;2023-06-04T04:04:22;10.33;;;10.33;;
2710;SDS011;20721;47.402;8.550;2023-06-04T04:05:24;9.74;;;9.74;;
2710;SDS011;20721;47.402;8.550;2023-06-04T04:06:22;9.76;;;9.76;;
2710;SDS011;20721;47.402;8.550;2023-06-04T04:07:22;10.34;;;10.34;;
2710;SDS011;20721;47.402;8.550;2023-06-04T04:08:22;9.76;;;9.76;;
2710;SDS011;20721;47.402;8.550;2023-06-04T04:09:22;11.00;;;11.00;;
2710;SDS011;20721;47.402;8.550;2023-06-04T04:11:22;9.84;;;9.84;;
2710;SDS011;20721;47.402;8.550;2023-06-04T04:12:22;11.47;;;11.39;;
2710;SDS011;20721;47.402;8.550;2023-06-04T04:13:22;10.36;;;10.36;;
2710;SDS011;20721;47.402;8.550;2023-06-04T04:14:22;10.44;;;10.44;;
2710;SDS011;20721;47.402;8.550;2023-06-04T04:15:22;10.36;;;10.36;;
2710;SDS011;20721;47.402;8.550;2023-06-04T04:16:22;9.84;;;9.84;;
2710;SDS011;20721;47.402;8.550;2023-06-04T04:17:25;10.11;;;10.11;;
2710;SDS011;20721;47.402;8.550;2023-06-04T04:19:22;10.22;;;10.22;;
2710;SDS011;20721;47.402;8.550;2023-06-04T04:20:22;10.32;;;10.32;;
2710;SDS011;20721;47.402;8.550;2023-06-04T04:21:22;11.29;;;11.29;;
2710;SDS011;20721;47.402;8.550;2023-06-04T04:22:23;9.79;;;9.79;;
2710;SDS011;20721;47.402;8.550;2023-06-04T04:23:22;10.80;;;10.80;;
2710;SDS011;20721;47.402;8.550;2023-06-04T04:24:31;10.16;;;10.16;;
2710;SDS011;20721;47.402;8.550;2023-06-04T04:26:26;9.51;;;9.51;;
2710;SDS011;20721;47.402;8.550;2023-06-04T04:27:22;10.50;;;10.50;;
2710;SDS011;20721;47.402;8.550;2023-06-04T04:28:22;11.04;;;11.04;;
2710;SDS011;20721;47.402;8.550;2023-06-04T04:29:22;11.32;;;11.32;;
2710;SDS011;20721;47.402;8.550;2023-06-04T04:30:23;11.39;;;11.39;;
2710;SDS011;20721;47.402;8.550;2023-06-04T04:31:22;11.53;;;11.53;;
2710;SDS011;20721;47.402;8.550;2023-06-04T04:32:22;11.55;;;11.55;;
2710;SDS011;20721;47.402;8.550;2023-06-04T04:33:25;10.74;;;10.74;;
2710;SDS011;20721;47.402;8.550;2023-06-04T04:34:22;10.44;;;10.44;;
2710;SDS011;20721;47.402;8.550;2023-06-04T04:35:22;10.74;;;10.74;;
2710;SDS011;20721;47.402;8.550;2023-06-04T04:36:24;10.48;;;10.48;;
2710;SDS011;20721;47.402;8.550;2023-06-04T04:37:22;10.79;;;10.79;;
2710;SDS011;20721;47.402;8.550;2023-06-04T04:38:23;10.33;;;10.33;;
2710;SDS011;20721;47.402;8.550;2023-06-04T04:39:22;10.71;;;10.71;;
2710;SDS011;20721;47.402;8.550;2023-06-04T04:40:22;11.19;;;11.19;;
2710;SDS011;20721;47.402;8.550;2023-06-04T04:41:22;11.11;;;11.11;;
2710;SDS011;20721;47.402;8.550;2023-06-04T04:42:22;12.01;;;12.01;;
2710;SDS011;20721;47.402;8.550;2023-06-04T04:43:30;11.95;;;11.95;;
2710;SDS011;20721;47.402;8.550;2023-06-04T04:45:22;11.72;;;11.72;;
2710;SDS011;20721;47.402;8.550;2023-06-04T04:47:23;12.09;;;12.09;;
2710;SDS011;20721;47.402;8.550;2023-06-04T04:48:22;12.88;;;12.88;;
2710;SDS011;20721;47.402;8.550;2023-06-04T04:49:22;11.41;;;11.41;;
2710;SDS011;20721;47.402;8.550;2023-06-04T04:50:22;10.99;;;10.99;;
2710;SDS011;20721;47.402;8.550;2023-06-04T04:51:22;11.33;;;11.33;;
2710;SDS011;20721;47.402;8.550;2023-06-04T04:52:22;11.78;;;11.78;;
2710;SDS011;20721;47.402;8.550;2023-06-04T04:53:22;11.47;;;11.47;;
2710;SDS011;20721;47.402;8.550;2023-06-04T04:54:22;11.96;;;11.96;;
2710;SDS011;20721;47.402;8.550;2023-06-04T04:55:23;10.93;;;10.93;;
2710;SDS011;20721;47.402;8.550;2023-06-04T04:56:22;11.83;;;11.83;;
2710;SDS011;20721;47.402;8.550;2023-06-04T04:57:24;11.17;;;11.17;;
2710;SDS011;20721;47.402;8.550;2023-06-04T04:58:22;12.51;;;12.51;;
2710;SDS011;20721;47.402;8.550;2023-06-04T04:59:22;12.33;;;12.33;;
2710;SDS011;20721;47.402;8.550;2023-06-04T05:00:22;11.64;;;11.64;;
2710;SDS011;20721;47.402;8.550;2023-06-04T05:01:22;12.49;;;12.49;;
2710;SDS011;20721;47.402;8.550;2023-06-04T05:02:22;12.81;;;12.81;;
2710;SDS011;20721;47.402;8.550;2023-06-04T05:03:22;11.72;;;11.72;;
2710;SDS011;20721;47.402;8.550;2023-06-04T05:04:22;11.80;;;11.80;;
2710;SDS011;20721;47.402;8.550;2023-06-04T05:05:22;11.79;;;11.79;;
2710;SDS011;20721;47.402;8.550;2023-06-04T05:06:22;12.38;;;12.38;;
2710;SDS011;20721;47.402;8.550;2023-06-04T05:07:22;11.53;;;11.53;;
2710;SDS011;20721;47.402;8.550;2023-06-04T05:08:22;12.31;;;12.31;;
2710;SDS011;20721;47.402;8.550;2023-06-04T05:09:22;12.59;;;12.59;;
2710;SDS011;20721;47.402;8.550;2023-06-04T05:10:22;11.69;;;11.69;;
2710;SDS011;20721;47.402;8.550;2023-06-04T05:12:24;12.97;;;12.97;;
2710;SDS011;20721;47.402;8.550;2023-06-04T05:13:22;12.41;;;12.41;;
2710;SDS011;20721;47.402;8.550;2023-06-04T05:14:22;13.49;;;13.49;;
2710;SDS011;20721;47.402;8.550;2023-06-04T05:15:22;11.44;;;11.44;;
2710;SDS011;20721;47.402;8.550;2023-06-04T05:16:23;12.66;;;12.66;;
2710;SDS011;20721;47.402;8.550;2023-06-04T05:17:24;13.00;;;13.00;;
2710;SDS011;20721;47.402;8.550;2023-06-04T05:18:22;12.53;;;12.53;;
2710;SDS011;20721;47.402;8.550;2023-06-04T05:19:22;12.42;;;12.42;;
2710;SDS011;20721;47.402;8.550;2023-06-04T05:20:22;12.08;;;12.08;;
2710;SDS011;20721;47.402;8.550;2023-06-04T05:21:23;12.52;;;12.52;;
2710;SDS011;20721;47.402;8.550;2023-06-04T05:22:22;12.17;;;12.14;;
2710;SDS011;20721;47.402;8.550;2023-06-04T05:23:22;13.51;;;13.43;;
2710;SDS011;20721;47.402;8.550;2023-06-04T05:24:22;13.11;;;13.08;;
2710;SDS011;20721;47.402;8.550;2023-06-04T05:25:22;12.88;;;12.88;;
2710;SDS011;20721;47.402;8.550;2023-06-04T05:26:22;12.68;;;12.68;;
2710;SDS011;20721;47.402;8.550;2023-06-04T05:27:22;11.95;;;11.95;;
2710;SDS011;20721;47.402;8.550;2023-06-04T05:28:22;13.95;;;13.95;;
2710;SDS011;20721;47.402;8.550;2023-06-04T05:29:22;12.67;;;12.67;;
2710;SDS011;20721;47.402;8.550;2023-06-04T05:30:22;12.44;;;12.44;;
2710;SDS011;20721;47.402;8.550;2023-06-04T05:32:22;12.95;;;12.95;;
2710;SDS011;20721;47.402;8.550;2023-06-04T05:33:28;13.31;;;13.31;;
2710;SDS011;20721;47.402;8.550;2023-06-04T05:34:26;13.61;;;13.61;;
2710;SDS011;20721;47.402;8.550;2023-06-04T05:35:22;12.17;;;12.06;;
2710;SDS011;20721;47.402;8.550;2023-06-04T05:36:23;13.74;;;13.32;;
2710;SDS011;20721;47.402;8.550;2023-06-04T05:37:23;14.02;;;13.52;;
2710;SDS011;20721;47.402;8.550;2023-06-04T05:38:27;13.23;;;13.23;;
2710;SDS011;20721;47.402;8.550;2023-06-04T05:39:22;13.20;;;13.20;;
2710;SDS011;20721;47.402;8.550;2023-06-04T05:40:22;13.33;;;13.33;;
2710;SDS011;20721;47.402;8.550;2023-06-04T05:41:23;12.28;;;12.28;;
2710;SDS011;20721;47.402;8.550;2023-06-04T05:42:23;12.79;;;12.79;;
2710;SDS011;20721;47.402;8.550;2023-06-04T05:43:22;12.16;;;12.16;;
2710;SDS011;20721;47.402;8.550;2023-06-04T05:45:22;12.17;;;12.17;;
2710;SDS011;20721;47.402;8.550;2023-06-04T05:46:23;11.43;;;11.43;;
2710;SDS011;20721;47.402;8.550;2023-06-04T05:47:22;12.30;;;12.30;;
2710;SDS011;20721;47.402;8.550;2023-06-04T05:48:22;11.76;;;11.76;;
2710;SDS011;20721;47.402;8.550;2023-06-04T05:49:22;11.46;;;11.46;;
2710;SDS011;20721;47.402;8.550;2023-06-04T05:51:23;12.18;;;12.18;;
2710;SDS011;20721;47.402;8.550;2023-06-04T05:52:22;11.96;;;11.96;;
2710;SDS011;20721;47.402;8.550;2023-06-04T05:55:22;11.71;;;11.71;;
2710;SDS011;20721;47.402;8.550;2023-06-04T05:56:23;10.85;;;10.85;;
2710;SDS011;20721;47.402;8.550;2023-06-04T05:57:22;10.83;;;10.83;;
2710;SDS011;20721;47.402;8.550;2023-06-04T05:58:22;12.40;;;12.40;;
2710;SDS011;20721;47.402;8.550;2023-06-04T05:59:22;11.68;;;11.68;;
2710;SDS011;20721;47.402;8.550;2023-06-04T06:00:23;13.59;;;13.59;;
2710;SDS011;20721;47.402;8.550;2023-06-04T06:02:23;12.48;;;12.48;;
2710;SDS011;20721;47.402;8.550;2023-06-04T06:05:22;12.49;;;12.49;;
2710;SDS011;20721;47.402;8.550;2023-06-04T06:06:22;12.34;;;12.34;;
2710;SDS011;20721;47.402;8.550;2023-06-04T06:07:22;12.47;;;12.47;;
2710;SDS011;20721;47.402;8.550;2023-06-04T06:08:23;11.83;;;11.83;;
2710;SDS011;20721;47.402;8.550;2023-06-04T06:09:22;13.16;;;13.16;;
2710;SDS011;20721;47.402;8.550;2023-06-04T06:10:22;12.50;;;12.50;;
2710;SDS011;20721;47.402;8.550;2023-06-04T06:11:23;12.11;;;12.11;;
2710;SDS011;20721;47.402;8.550;2023-06-04T06:12:22;13.21;;;13.21;;
2710;SDS011;20721;47.402;8.550;2023-06-04T06:13:22;12.28;;;12.28;;
2710;SDS011;20721;47.402;8.550;2023-06-04T06:14:23;13.48;;;13.48;;
2710;SDS011;20721;47.402;8.550;2023-06-04T06:15:22;12.06;;;12.06;;
2710;SDS011;20721;47.402;8.550;2023-06-04T06:16:22;11.79;;;11.79;;
2710;SDS011;20721;47.402;8.550;2023-06-04T06:17:22;12.52;;;12.31;;
2710;SDS011;20721;47.402;8.550;2023-06-04T06:18:22;12.74;;;12.74;;
2710;SDS011;20721;47.402;8.550;2023-06-04T06:21:22;12.98;;;12.98;;
2710;SDS011;20721;47.402;8.550;2023-06-04T06:22:23;12.72;;;12.72;;
2710;SDS011;20721;47.402;8.550;2023-06-04T06:23:22;12.41;;;12.41;;
2710;SDS011;20721;47.402;8.550;2023-06-04T06:24:22;12.01;;;12.01;;
2710;SDS011;20721;47.402;8.550;2023-06-04T06:27:22;13.47;;;13.47;;
2710;SDS011;20721;47.402;8.550;2023-06-04T06:30:23;12.22;;;12.22;;
2710;SDS011;20721;47.402;8.550;2023-06-04T06:31:22;12.93;;;12.93;;
2710;SDS011;20721;47.402;8.550;2023-06-04T06:32:22;13.58;;;13.58;;
2710;SDS011;20721;47.402;8.550;2023-06-04T06:33:23;12.77;;;12.77;;
2710;SDS011;20721;47.402;8.550;2023-06-04T06:34:23;12.52;;;12.52;;
2710;SDS011;20721;47.402;8.550;2023-06-04T06:35:22;13.68;;;13.68;;
2710;SDS011;20721;47.402;8.550;2023-06-04T06:36:22;13.41;;;13.41;;
2710;SDS011;20721;47.402;8.550;2023-06-04T06:38:23;13.05;;;13.05;;
2710;SDS011;20721;47.402;8.550;2023-06-04T06:40:22;13.32;;;13.32;;
2710;SDS011;20721;47.402;8.550;2023-06-04T06:41:22;13.15;;;13.15;;
2710;SDS011;20721;47.402;8.550;2023-06-04T06:42:22;12.72;;;12.72;;
2710;SDS011;20721;47.402;8.550;2023-06-04T06:43:22;14.01;;;14.01;;
2710;SDS011;20721;47.402;8.550;2023-06-04T06:44:22;13.62;;;13.62;;
2710;SDS011;20721;47.402;8.550;2023-06-04T06:45:22;14.69;;;14.69;;
2710;SDS011;20721;47.402;8.550;2023-06-04T06:46:22;13.07;;;13.07;;
2710;SDS011;20721;47.402;8.550;2023-06-04T06:47:23;14.17;;;14.17;;
2710;SDS011;20721;47.402;8.550;2023-06-04T06:48:22;13.85;;;13.85;;
2710;SDS011;20721;47.402;8.550;2023-06-04T06:49:22;14.56;;;14.56;;
2710;SDS011;20721;47.402;8.550;2023-06-04T06:50:22;14.50;;;14.50;;
2710;SDS011;20721;47.402;8.550;2023-06-04T06:51:22;13.75;;;13.75;;
2710;SDS011;20721;47.402;8.550;2023-06-04T06:52:22;13.62;;;13.62;;
2710;SDS011;20721;47.402;8.550;2023-06-04T06:53:22;13.20;;;13.20;;
2710;SDS011;20721;47.402;8.550;2023-06-04T06:54:24;13.28;;;13.28;;
2710;SDS011;20721;47.402;8.550;2023-06-04T06:55:22;14.20;;;14.20;;
2710;SDS011;20721;47.402;8.550;2023-06-04T06:56:23;13.53;;;13.53;;